createdAt,value
2019-01-08T00:02:22.742Z,101464.33
2019-01-08T00:05:13.272Z,101465.23
2019-01-08T00:08:03.877Z,101467.69
2019-01-08T00:10:54.383Z,101471.70
2019-01-08T00:13:45.016Z,101480.05
2019-01-08T00:16:36.046Z,101475.84
2019-01-08T00:19:26.828Z,101487.70
2019-01-08T00:22:17.355Z,101480.58
2019-01-08T00:25:07.803Z,101479.09
2019-01-08T00:28:01.030Z,101490.34
2019-01-08T00:30:51.395Z,101498.64
2019-01-08T00:33:42.216Z,101490.25
2019-01-08T00:36:32.501Z,101487.16
2019-01-08T00:39:23.037Z,101488.94
2019-01-08T00:42:13.682Z,101476.63
2019-01-08T00:45:04.231Z,101479.76
2019-01-08T00:47:54.835Z,101484.17
2019-01-08T00:50:45.168Z,101472.41
2019-01-08T00:53:36.099Z,101485.56
2019-01-08T00:56:26.577Z,101483.31
2019-01-08T00:59:18.367Z,101475.40
2019-01-08T01:02:08.870Z,101473.73
2019-01-08T01:04:59.861Z,101472.33
2019-01-08T01:07:50.552Z,101468.79
2019-01-08T01:10:40.946Z,101475.81
2019-01-08T01:13:31.272Z,101475.78
2019-01-08T01:16:21.623Z,101470.92
2019-01-08T01:19:11.966Z,101464.36
2019-01-08T01:22:02.324Z,101463.05
2019-01-08T01:24:52.768Z,101471.40
2019-01-08T01:27:43.648Z,101465.64
2019-01-08T01:30:34.496Z,101475.84
2019-01-08T01:33:25.213Z,101461.81
2019-01-08T01:36:15.645Z,101468.71
2019-01-08T01:39:07.011Z,101467.89
2019-01-08T01:41:57.715Z,101463.05
2019-01-08T01:44:48.355Z,101461.20
2019-01-08T01:47:39.012Z,101460.44
2019-01-08T01:50:29.495Z,101452.49
2019-01-08T01:53:19.818Z,101456.47
2019-01-08T01:56:11.174Z,101457.78
2019-01-08T01:59:08.281Z,101459.53
2019-01-08T02:01:54.266Z,101465.34
2019-01-08T02:04:44.646Z,101456.52
2019-01-08T02:07:35.387Z,101454.81
2019-01-08T02:10:25.776Z,101453.50
2019-01-08T02:13:16.898Z,101446.93
2019-01-08T02:16:07.479Z,101444.22
2019-01-08T02:18:58.141Z,101445.62
2019-01-08T02:21:48.908Z,101443.92
2019-01-08T02:24:39.452Z,101447.78
2019-01-08T02:27:29.985Z,101447.84
2019-01-08T02:30:20.762Z,101453.51
2019-01-08T02:33:11.154Z,101453.06
2019-01-08T02:36:01.813Z,101450.06
2019-01-08T02:38:52.068Z,101445.73
2019-01-08T02:41:42.481Z,101441.70
2019-01-08T02:44:33.166Z,101430.86
2019-01-08T02:47:25.737Z,101442.20
2019-01-08T02:50:16.370Z,101433.42
2019-01-08T02:53:06.910Z,101432.98
2019-01-08T02:55:57.302Z,101438.72
2019-01-08T02:58:47.855Z,101434.80
2019-01-08T03:01:38.365Z,101430.91
2019-01-08T03:04:28.968Z,101427.78
2019-01-08T03:07:19.542Z,101426.99
2019-01-08T03:10:10.278Z,101420.02
2019-01-08T03:13:00.631Z,101419.95
2019-01-08T03:15:50.927Z,101413.92
2019-01-08T03:18:41.557Z,101419.11
2019-01-08T03:21:32.001Z,101420.85
2019-01-08T03:24:22.783Z,101426.41
2019-01-08T03:27:13.174Z,101422.44
2019-01-08T03:30:03.897Z,101424.80
2019-01-08T03:32:54.344Z,101426.99
2019-01-08T03:35:44.571Z,101423.19
2019-01-08T03:38:35.231Z,101429.92
2019-01-08T03:41:25.805Z,101426.66
2019-01-08T03:44:16.363Z,101435.59
2019-01-08T03:47:07.154Z,101432.47
2019-01-08T03:49:57.701Z,101432.00
2019-01-08T03:52:48.325Z,101429.03
2019-01-08T03:55:39.024Z,101436.53
2019-01-08T03:58:29.686Z,101433.45
2019-01-08T04:01:20.659Z,101437.55
2019-01-08T04:04:12.467Z,101442.83
2019-01-08T04:07:03.292Z,101440.22
2019-01-08T04:09:53.804Z,101433.31
2019-01-08T04:12:44.242Z,101438.17
2019-01-08T04:15:34.491Z,101436.94
2019-01-08T04:18:27.015Z,101435.70
2019-01-08T04:21:17.438Z,101435.32
2019-01-08T04:24:08.065Z,101427.84
2019-01-08T04:26:58.791Z,101434.08
2019-01-08T04:29:50.567Z,101433.70
2019-01-08T04:32:41.813Z,101436.44
2019-01-08T04:35:32.211Z,101436.51
2019-01-08T04:38:22.807Z,101435.60
2019-01-08T04:41:13.525Z,101430.50
2019-01-08T04:44:03.919Z,101431.39
2019-01-08T04:46:54.624Z,101431.47
2019-01-08T04:49:45.367Z,101435.88
2019-01-08T04:52:36.038Z,101433.67
2019-01-08T04:55:26.192Z,101435.91
2019-01-08T04:58:16.827Z,101432.36
2019-01-08T05:01:07.395Z,101433.25
2019-01-08T05:03:58.157Z,101430.20
2019-01-08T05:06:48.728Z,101429.39
2019-01-08T05:09:39.460Z,101427.13
2019-01-08T05:12:29.807Z,101435.50
2019-01-08T05:15:20.385Z,101433.36
2019-01-08T05:18:11.073Z,101433.40
2019-01-08T05:21:02.007Z,101430.33
2019-01-08T05:23:52.622Z,101432.55
2019-01-08T05:26:43.295Z,101435.28
2019-01-08T05:29:33.869Z,101434.34
2019-01-08T05:32:24.084Z,101431.36
2019-01-08T05:35:14.571Z,101428.33
2019-01-08T05:38:05.392Z,101431.34
2019-01-08T05:40:56.051Z,101429.17
2019-01-08T05:43:46.211Z,101429.20
2019-01-08T05:46:36.783Z,101431.30
2019-01-08T05:49:27.449Z,101429.06
2019-01-08T05:52:18.081Z,101427.38
2019-01-08T05:55:09.035Z,101433.91
2019-01-08T05:57:59.747Z,101434.38
2019-01-08T06:00:51.206Z,101430.03
2019-01-08T06:03:41.793Z,101434.83
2019-01-08T06:06:32.509Z,101431.23
2019-01-08T06:09:23.020Z,101439.64
2019-01-08T06:12:13.571Z,101442.28
2019-01-08T06:15:03.814Z,101440.09
2019-01-08T06:17:54.321Z,101439.70
2019-01-08T06:20:44.607Z,101444.87
2019-01-08T06:23:35.001Z,101447.83
2019-01-08T06:26:25.367Z,101448.24
2019-01-08T06:29:16.056Z,101444.53
2019-01-08T06:32:06.793Z,101446.87
2019-01-08T06:35:00.480Z,101446.75
2019-01-08T06:37:51.327Z,101442.95
2019-01-08T06:40:42.096Z,101443.98
2019-01-08T06:43:32.796Z,101440.81
2019-01-08T06:46:23.386Z,101444.34
2019-01-08T06:49:13.846Z,101448.43
2019-01-08T06:52:04.458Z,101447.34
2019-01-08T06:54:54.659Z,101439.34
2019-01-08T06:57:45.378Z,101440.61
2019-01-08T07:00:35.508Z,101444.50
2019-01-08T07:03:26.281Z,101449.34
2019-01-08T07:06:16.915Z,101443.27
2019-01-08T07:09:08.395Z,101451.16
2019-01-08T07:11:58.725Z,101453.95
2019-01-08T07:14:49.596Z,101449.17
2019-01-08T07:17:40.046Z,101452.27
2019-01-08T07:20:30.408Z,101445.25
2019-01-08T07:23:20.737Z,101448.86
2019-01-08T07:26:11.443Z,101444.59
2019-01-08T07:29:01.881Z,101440.23
2019-01-08T07:31:52.713Z,101446.39
2019-01-08T07:34:43.173Z,101446.22
2019-01-08T07:37:33.798Z,101442.69
2019-01-08T07:40:24.254Z,101451.78
2019-01-08T07:43:14.924Z,101457.76
2019-01-08T07:46:05.372Z,101453.98
2019-01-08T07:48:55.715Z,101450.07
2019-01-08T07:51:46.275Z,101450.77
2019-01-08T07:54:37.029Z,101449.88
2019-01-08T07:57:27.415Z,101448.88
2019-01-08T08:00:18.046Z,101439.52
2019-01-08T08:03:08.653Z,101445.55
2019-01-08T08:05:59.172Z,101448.89
2019-01-08T08:08:49.599Z,101443.03
2019-01-08T08:11:40.285Z,101441.66
2019-01-08T08:14:30.964Z,101442.49
2019-01-08T08:17:23.161Z,101439.91
2019-01-08T08:20:13.535Z,101447.56
2019-01-08T08:23:03.974Z,101442.97
2019-01-08T08:25:54.529Z,101443.56
2019-01-08T08:28:45.353Z,101438.34
2019-01-08T08:31:36.052Z,101444.53
2019-01-08T08:34:26.461Z,101438.17
2019-01-08T08:37:16.891Z,101429.52
2019-01-08T08:40:08.308Z,101435.00
2019-01-08T08:42:58.639Z,101429.99
2019-01-08T08:45:49.339Z,101423.53
2019-01-08T08:48:39.695Z,101425.80
2019-01-08T08:51:30.544Z,101421.26
2019-01-08T08:54:21.099Z,101425.30
2019-01-08T08:57:11.437Z,101424.28
2019-01-08T09:00:02.149Z,101394.81
2019-01-08T09:02:52.758Z,101425.20
2019-01-08T09:05:43.594Z,101421.41
2019-01-08T09:08:34.546Z,101425.83
2019-01-08T09:11:25.345Z,101416.55
2019-01-08T09:14:18.811Z,101411.64
2019-01-08T09:17:08.967Z,101404.34
2019-01-08T09:19:59.382Z,101415.08
2019-01-08T09:22:50.001Z,101407.63
2019-01-08T09:25:40.780Z,101406.30
2019-01-08T09:28:31.209Z,101388.16
2019-01-08T09:31:21.895Z,101389.58
2019-01-08T09:34:12.420Z,101381.81
2019-01-08T09:37:03.018Z,101376.16
2019-01-08T09:39:53.791Z,101376.03
2019-01-08T09:42:44.661Z,101378.09
2019-01-08T09:45:35.250Z,101376.78
2019-01-08T09:48:25.849Z,101358.96
2019-01-08T09:51:16.142Z,101370.25
2019-01-08T09:54:06.868Z,101362.09
2019-01-08T09:56:57.364Z,101358.91
2019-01-08T09:59:48.152Z,101353.55
2019-01-08T10:02:38.331Z,101344.25
2019-01-08T10:05:28.824Z,101339.56
2019-01-08T10:08:19.103Z,101332.13
2019-01-08T10:11:18.027Z,101335.17
2019-01-08T10:14:18.299Z,101329.64
2019-01-08T10:17:14.399Z,101322.52
2019-01-08T10:20:06.366Z,101320.64
2019-01-08T10:22:57.247Z,101315.97
2019-01-08T10:25:50.121Z,101311.37
2019-01-08T10:28:40.866Z,101303.33
2019-01-08T10:31:32.548Z,101304.66
2019-01-08T10:34:24.049Z,101285.28
2019-01-08T10:37:14.601Z,101287.13
2019-01-08T10:40:05.388Z,101274.07
2019-01-08T10:42:55.641Z,101268.34
2019-01-08T10:45:46.442Z,101264.23
2019-01-08T10:48:37.104Z,101270.69
2019-01-08T10:51:27.945Z,101256.66
2019-01-08T10:54:18.805Z,101257.27
2019-01-08T10:57:12.369Z,101249.28
2019-01-08T11:00:03.891Z,101234.02
2019-01-08T11:02:54.793Z,101228.09
2019-01-08T11:05:45.534Z,101220.00
2019-01-08T11:08:35.707Z,101209.95
2019-01-08T11:11:26.591Z,101207.42
2019-01-08T11:14:17.242Z,101195.92
2019-01-08T11:17:07.573Z,101199.73
2019-01-08T11:19:59.353Z,101197.10
2019-01-08T11:22:49.910Z,101192.64
2019-01-08T11:25:40.524Z,101186.96
2019-01-08T11:28:31.057Z,101181.78
2019-01-08T11:31:21.748Z,101169.61
2019-01-08T11:34:12.496Z,101162.20
2019-01-08T11:37:03.221Z,101160.54
2019-01-08T11:39:54.398Z,101160.22
2019-01-08T11:42:44.961Z,101151.79
2019-01-08T11:45:35.363Z,101151.75
2019-01-08T11:48:25.926Z,101146.47
2019-01-08T11:51:16.210Z,101141.80
2019-01-08T11:54:08.267Z,101135.63
2019-01-08T11:56:58.949Z,101130.39
2019-01-08T11:59:49.591Z,101128.08
2019-01-08T12:02:47.774Z,101125.84
2019-01-08T12:05:33.345Z,101117.02
2019-01-08T12:08:24.153Z,101119.37
2019-01-08T12:11:14.864Z,101108.34
2019-01-08T12:14:05.469Z,101109.91
2019-01-08T12:16:56.017Z,101106.54
2019-01-08T12:19:46.724Z,101105.18
2019-01-08T12:22:40.952Z,101097.00
2019-01-08T12:25:29.640Z,101103.51
2019-01-08T12:28:20.623Z,101103.55
2019-01-08T12:31:11.474Z,101107.64
2019-01-08T12:34:02.353Z,101116.97
2019-01-08T12:36:53.973Z,101101.09
2019-01-08T12:39:44.804Z,101104.28
2019-01-08T12:42:35.334Z,101101.26
2019-01-08T12:45:25.658Z,101097.89
2019-01-08T12:48:16.523Z,101091.27
2019-01-08T12:51:07.022Z,101095.98
2019-01-08T12:53:57.674Z,101095.25
2019-01-08T12:56:48.544Z,101088.56
2019-01-08T12:59:40.737Z,101093.67
2019-01-08T13:02:31.638Z,101084.61
2019-01-08T13:05:22.282Z,101088.75
2019-01-08T13:08:13.240Z,101073.99
2019-01-08T13:11:03.785Z,101064.17
2019-01-08T13:13:56.399Z,101060.97
2019-01-08T13:16:47.312Z,101062.62
2019-01-08T13:19:38.113Z,101065.02
2019-01-08T13:22:29.089Z,101061.46
2019-01-08T13:25:19.587Z,101058.77
2019-01-08T13:28:10.289Z,101060.80
2019-01-08T13:31:00.827Z,101051.97
2019-01-08T13:33:51.329Z,101042.45
2019-01-08T13:36:42.147Z,101041.68
2019-01-08T13:39:32.541Z,101041.09
2019-01-08T13:42:23.419Z,101043.83
2019-01-08T13:45:13.927Z,101039.73
2019-01-08T13:48:04.953Z,101042.19
2019-01-08T13:50:55.474Z,101041.50
2019-01-08T13:53:46.133Z,101044.05
2019-01-08T13:56:36.958Z,101056.48
2019-01-08T13:59:27.470Z,101056.35
2019-01-08T14:02:18.327Z,101054.35
2019-01-08T14:05:08.746Z,101047.76
2019-01-08T14:07:59.123Z,101046.30
2019-01-08T14:10:56.397Z,101045.85
2019-01-08T14:13:41.790Z,101046.48
2019-01-08T14:16:32.142Z,101052.55
2019-01-08T14:19:23.018Z,101046.48
2019-01-08T14:22:13.426Z,101041.61
2019-01-08T14:25:04.020Z,101037.26
2019-01-08T14:27:54.736Z,101029.20
2019-01-08T14:30:45.507Z,101034.42
2019-01-08T14:33:37.230Z,101034.87
2019-01-08T14:36:27.904Z,101035.45
2019-01-08T14:39:18.617Z,101031.16
2019-01-08T14:42:09.135Z,101036.47
2019-01-08T14:44:59.739Z,101032.81
2019-01-08T14:47:50.113Z,101027.63
2019-01-08T14:50:40.602Z,101028.38
2019-01-08T14:53:30.803Z,101026.10
2019-01-08T14:56:21.157Z,101029.13
2019-01-08T14:59:11.543Z,100998.39
2019-01-08T15:02:04.935Z,101021.55
2019-01-08T15:04:55.443Z,101020.37
2019-01-08T15:07:45.797Z,101013.05
2019-01-08T15:10:36.030Z,101019.05
2019-01-08T15:13:26.973Z,101019.19
2019-01-08T15:16:17.673Z,101010.81
2019-01-08T15:19:08.505Z,101012.16
2019-01-08T15:21:59.389Z,101008.99
2019-01-08T15:24:50.001Z,101005.88
2019-01-08T15:27:40.405Z,100999.52
2019-01-08T15:30:30.995Z,100994.25
2019-01-08T15:33:21.545Z,100989.91
2019-01-08T15:36:12.296Z,100985.40
2019-01-08T15:39:03.267Z,100984.65
2019-01-08T15:41:54.861Z,100977.40
2019-01-08T15:44:48.458Z,100980.12
2019-01-08T15:47:38.609Z,100974.62
2019-01-08T15:50:28.852Z,100969.84
2019-01-08T15:53:20.492Z,100968.61
2019-01-08T15:56:11.045Z,100965.06
2019-01-08T15:59:01.867Z,100956.69
2019-01-08T16:01:52.666Z,100959.89
2019-01-08T16:04:43.169Z,100951.99
2019-01-08T16:07:33.896Z,100949.13
2019-01-08T16:10:24.596Z,100947.26
2019-01-08T16:13:15.341Z,100949.02
2019-01-08T16:16:05.986Z,100941.25
2019-01-08T16:18:56.414Z,100943.40
2019-01-08T16:21:47.175Z,100944.86
2019-01-08T16:24:37.779Z,100944.75
2019-01-08T16:27:28.321Z,100950.52
2019-01-08T16:30:20.127Z,100947.45
2019-01-08T16:33:15.917Z,100943.27
2019-01-08T16:36:02.992Z,100941.08
2019-01-08T16:38:53.244Z,100937.14
2019-01-08T16:41:43.910Z,100946.38
2019-01-08T16:44:35.641Z,100910.81
2019-01-08T16:47:26.409Z,100950.27
2019-01-08T16:50:16.814Z,100941.59
2019-01-08T16:53:09.571Z,100943.75
2019-01-08T16:56:00.079Z,100945.02
2019-01-08T16:58:50.192Z,100941.59
2019-01-08T17:01:40.755Z,100934.27
2019-01-08T17:04:31.427Z,100934.66
2019-01-08T17:07:22.242Z,100935.98
2019-01-08T17:10:13.830Z,100928.61
2019-01-08T17:13:05.285Z,100924.52
2019-01-08T17:15:56.302Z,100920.69
2019-01-08T17:18:47.259Z,100919.81
2019-01-08T17:21:37.515Z,100915.33
2019-01-08T17:24:28.134Z,100923.28
2019-01-08T17:27:20.177Z,100917.27
2019-01-08T17:30:11.987Z,100918.06
2019-01-08T17:33:02.560Z,100912.01
2019-01-08T17:35:53.132Z,100908.07
2019-01-08T17:38:43.498Z,100909.27
2019-01-08T17:41:34.477Z,100906.80
2019-01-08T17:44:24.856Z,100908.11
2019-01-08T17:47:15.603Z,100911.02
2019-01-08T17:50:07.531Z,100911.81
2019-01-08T17:52:58.249Z,100906.12
2019-01-08T17:55:49.159Z,100910.06
2019-01-08T17:58:42.067Z,100902.97
2019-01-08T18:01:34.762Z,100908.11
2019-01-08T18:04:25.651Z,100913.28
2019-01-08T18:07:15.968Z,100914.67
2019-01-08T18:10:08.177Z,100916.27
2019-01-08T18:12:58.884Z,100913.36
2019-01-08T18:15:49.466Z,100915.03
2019-01-08T18:18:40.180Z,100914.94
2019-01-08T18:21:30.466Z,100926.28
2019-01-08T18:24:20.873Z,100927.19
2019-01-08T18:27:11.482Z,100931.53
2019-01-08T18:30:06.195Z,100924.97
2019-01-08T18:32:57.451Z,100925.80
2019-01-08T18:35:48.341Z,100927.19
2019-01-08T18:38:39.207Z,100920.63
2019-01-08T18:41:29.911Z,100914.83
2019-01-08T18:44:20.674Z,100921.14
2019-01-08T18:47:11.274Z,100930.62
2019-01-08T18:50:01.653Z,100930.41
2019-01-08T18:52:52.060Z,100929.53
2019-01-08T18:55:42.627Z,100928.77
2019-01-08T18:58:32.934Z,100924.83
2019-01-08T19:01:23.574Z,100921.36
2019-01-08T19:04:13.824Z,100921.14
2019-01-08T19:07:04.504Z,100925.52
2019-01-08T19:10:00.492Z,100921.43
2019-01-08T19:12:51.173Z,100924.20
2019-01-08T19:15:41.805Z,100918.48
2019-01-08T19:18:32.484Z,100918.11
2019-01-08T19:21:22.740Z,100923.30
2019-01-08T19:24:13.453Z,100908.84
2019-01-08T19:27:04.005Z,100905.38
2019-01-08T19:29:54.834Z,100900.97
2019-01-08T19:32:47.504Z,100907.02
2019-01-08T19:35:38.160Z,100899.94
2019-01-08T19:38:32.442Z,100894.14
2019-01-08T19:41:23.362Z,100885.42
2019-01-08T19:44:14.089Z,100884.78
2019-01-08T19:47:04.850Z,100888.28
2019-01-08T19:49:55.492Z,100893.19
2019-01-08T19:52:47.881Z,100887.02
2019-01-08T19:55:38.110Z,100894.22
2019-01-08T19:58:29.706Z,100892.34
2019-01-08T20:01:20.538Z,100888.77
2019-01-08T20:04:17.659Z,100882.67
2019-01-08T20:07:03.432Z,100868.81
2019-01-08T20:09:57.102Z,100877.25
2019-01-08T20:12:47.647Z,100881.55
2019-01-08T20:15:39.010Z,100889.56
2019-01-08T20:18:29.387Z,100881.63
2019-01-08T20:21:20.314Z,100878.09
2019-01-08T20:24:10.756Z,100869.30
2019-01-08T20:27:02.529Z,100866.05
2019-01-08T20:29:52.996Z,100854.75
2019-01-08T20:32:43.913Z,100857.73
2019-01-08T20:35:34.456Z,100855.27
2019-01-08T20:38:25.502Z,100852.29
2019-01-08T20:41:18.791Z,100845.72
2019-01-08T20:44:09.883Z,100831.95
2019-01-08T20:47:00.317Z,100829.49
2019-01-08T20:49:50.913Z,100835.89
2019-01-08T20:52:42.621Z,100840.55
2019-01-08T20:55:32.910Z,100839.72
2019-01-08T20:58:28.668Z,100846.47
2019-01-08T21:01:15.438Z,100844.80
2019-01-08T21:04:05.772Z,100834.89
2019-01-08T21:06:56.654Z,100821.48
2019-01-08T21:09:47.270Z,100826.03
2019-01-08T21:12:38.110Z,100821.69
2019-01-08T21:15:28.513Z,100822.61
2019-01-08T21:18:19.059Z,100827.30
2019-01-08T21:21:10.663Z,100828.61
2019-01-08T21:24:01.505Z,100819.06
2019-01-08T21:26:51.973Z,100815.12
2019-01-08T21:29:43.014Z,100806.80
2019-01-08T21:32:33.872Z,100801.34
2019-01-08T21:35:24.298Z,100799.19
2019-01-08T21:38:14.735Z,100796.25
2019-01-08T21:41:05.318Z,100792.23
2019-01-08T21:43:55.545Z,100782.87
2019-01-08T21:46:46.282Z,100783.73
2019-01-08T21:49:36.919Z,100765.95
2019-01-08T21:52:28.164Z,100768.67
2019-01-08T21:55:18.992Z,100763.73
2019-01-08T21:58:09.550Z,100762.41
2019-01-08T22:01:00.144Z,100758.55
2019-01-08T22:03:50.967Z,100759.28
2019-01-08T22:06:41.442Z,100753.60
2019-01-08T22:09:32.482Z,100744.97
2019-01-08T22:12:23.055Z,100749.92
2019-01-08T22:15:14.955Z,100743.00
2019-01-08T22:18:05.210Z,100741.70
2019-01-08T22:20:55.772Z,100746.81
2019-01-08T22:23:46.612Z,100736.88
2019-01-08T22:26:37.620Z,100742.05
2019-01-08T22:29:28.337Z,100736.13
2019-01-08T22:32:18.535Z,100735.64
2019-01-08T22:35:09.207Z,100740.59
2019-01-08T22:37:59.599Z,100746.64
2019-01-08T22:40:50.087Z,100747.34
2019-01-08T22:43:41.223Z,100753.91
2019-01-08T22:46:33.958Z,100743.14
2019-01-08T22:49:24.295Z,100746.42
2019-01-08T22:52:17.659Z,100748.21
2019-01-08T22:55:08.257Z,100749.84
2019-01-08T22:57:58.877Z,100747.16
2019-01-08T23:01:14.116Z,100752.91
2019-01-08T23:04:06.596Z,100752.91
2019-01-08T23:06:57.314Z,100753.52
2019-01-08T23:09:48.779Z,100752.72
2019-01-08T23:12:39.212Z,100739.63
2019-01-08T23:15:29.932Z,100715.86
2019-01-08T23:18:20.666Z,100727.59
2019-01-08T23:21:12.713Z,100716.96
2019-01-08T23:24:03.491Z,100719.49
2019-01-08T23:26:53.875Z,100720.14
2019-01-08T23:29:44.837Z,100716.12
2019-01-08T23:32:35.682Z,100702.94
2019-01-08T23:35:26.440Z,100709.41
2019-01-08T23:38:16.919Z,100703.57
2019-01-08T23:41:07.436Z,100704.45
2019-01-08T23:43:57.838Z,100700.12
2019-01-08T23:46:48.392Z,100696.27
2019-01-08T23:49:38.629Z,100695.19
2019-01-08T23:52:35.268Z,100690.14
2019-01-08T23:55:25.895Z,100687.78
2019-01-08T23:58:16.678Z,100691.41
